Time;durP1;ratioP1;P1;durP2;ratioP2;P2;SDS_P1;SDS_P2;PMS_P1;PMS_P2;Temp;Humidity;BMP_temperature;BMP_pressure;BME280_temperature;BME280_humidity;BME280_pressure;Samples;Min_cycle;Max_cycle;Signal;HPM_P1;HPM_P2
2021/11/20 00:00:56;;;;;;;9.52;4.85;;;16.40;90.80;;;;;;4181770;28;20132;-60
2021/11/20 00:03:19;;;;;;;13.82;4.95;;;16.40;90.80;;;;;;4185062;28;20823;-60
2021/11/20 00:05:46;;;;;;;10.15;5.40;;;16.40;90.90;;;;;;4192911;28;20140;-60
2021/11/20 00:08:09;;;;;;;11.90;5.78;;;16.40;90.80;;;;;;4192850;28;20044;-60
2021/11/20 00:10:33;;;;;;;11.60;5.63;;;16.40;90.90;;;;;;4193033;28;20454;-59
2021/11/20 00:12:56;;;;;;;12.68;6.00;;;16.40;91.00;;;;;;4192312;28;20476;-59
2021/11/20 00:15:21;;;;;;;11.95;5.80;;;16.40;90.90;;;;;;4186029;28;20052;-60
2021/11/20 00:17:43;;;;;;;10.80;5.55;;;16.30;90.90;;;;;;4192436;28;20056;-59
2021/11/20 00:20:08;;;;;;;10.32;6.03;;;16.40;90.90;;;;;;4192604;28;20130;-60
2021/11/20 00:22:35;;;;;;;11.50;6.25;;;16.30;90.80;;;;;;4179508;28;20087;-60
2021/11/20 00:25:01;;;;;;;13.02;6.63;;;16.30;91.30;;;;;;4176337;28;20067;-59
2021/11/20 00:27:33;;;;;;;10.38;6.30;;;16.30;91.00;;;;;;4192999;28;20048;-59
2021/11/20 00:30:01;;;;;;;10.88;6.60;;;16.30;90.90;;;;;;4192559;28;20048;-59
2021/11/20 00:32:27;;;;;;;13.32;6.32;;;16.30;91.00;;;;;;4174285;28;20060;-59
2021/11/20 00:34:49;;;;;;;9.50;6.07;;;16.30;91.10;;;;;;4179039;28;20134;-60
2021/11/20 00:37:11;;;;;;;15.27;7.22;;;16.30;91.20;;;;;;4174664;28;20044;-60
2021/11/20 00:39:37;;;;;;;13.95;6.65;;;16.20;91.10;;;;;;4176098;28;20059;-59
2021/11/20 00:42:00;;;;;;;10.18;6.88;;;16.20;91.20;;;;;;4174468;28;20886;-59
2021/11/20 00:44:22;;;;;;;10.43;7.05;;;16.20;91.10;;;;;;4188815;28;20052;-60
2021/11/20 00:46:46;;;;;;;9.60;6.85;;;16.20;91.20;;;;;;4175319;28;20044;-60
2021/11/20 00:49:08;;;;;;;16.30;7.57;;;16.20;91.20;;;;;;4189084;28;20106;-59
2021/11/20 00:51:31;;;;;;;16.30;7.60;;;16.20;91.30;;;;;;4192461;28;20052;-59
2021/11/20 00:53:53;;;;;;;11.70;7.30;;;16.20;91.30;;;;;;4188348;28;20151;-60
2021/11/20 00:56:19;;;;;;;13.48;7.78;;;16.20;91.30;;;;;;4174557;28;20131;-60
2021/11/20 00:58:42;;;;;;;16.30;7.22;;;16.20;91.30;;;;;;4189181;28;20076;-59
2021/11/20 01:01:06;;;;;;;13.15;7.75;;;16.20;91.30;;;;;;4192581;28;20448;-60
2021/11/20 01:03:29;;;;;;;16.10;7.72;;;16.20;91.40;;;;;;4173787;28;20052;-60
2021/11/20 01:05:52;;;;;;;15.30;7.82;;;16.20;91.40;;;;;;4176122;28;20049;-60
2021/11/20 01:08:17;;;;;;;14.05;7.55;;;16.20;91.40;;;;;;4184570;28;20040;-59
2021/11/20 01:10:43;;;;;;;14.25;7.50;;;16.20;91.40;;;;;;4192277;28;20052;-60
2021/11/20 01:13:07;;;;;;;15.60;7.97;;;16.10;91.30;;;;;;4201018;28;20044;-60
2021/11/20 01:15:33;;;;;;;14.02;7.65;;;16.20;91.40;;;;;;4190963;28;20585;-60
2021/11/20 01:17:56;;;;;;;13.43;7.15;;;16.20;91.30;;;;;;4190636;28;20098;-60
2021/11/20 01:20:21;;;;;;;12.23;7.53;;;16.20;91.40;;;;;;4188391;28;20159;-59
2021/11/20 01:22:51;;;;;;;10.98;7.22;;;16.10;91.30;;;;;;4173993;28;20060;-59
2021/11/20 01:25:36;;;;;;;14.35;7.68;;;16.10;91.40;;;;;;4157570;28;20056;-59
2021/11/20 01:28:07;;;;;;;14.27;8.27;;;16.10;91.50;;;;;;4174100;28;20519;-60
2021/11/20 01:30:51;;;;;;;14.43;8.13;;;16.10;91.60;;;;;;4173816;28;20049;-59
2021/11/20 01:33:21;;;;;;;;;;;16.10;91.60;;;;;;4174389;28;20409;-59
2021/11/20 01:35:45;;;;;;;13.40;7.38;;;16.10;91.60;;;;;;4174211;28;19938;-59
2021/11/20 01:38:11;;;;;;;15.32;8.43;;;16.10;91.90;;;;;;4174198;28;20045;-59
2021/11/20 01:40:37;;;;;;;10.68;7.45;;;16.10;91.80;;;;;;4173854;28;20159;-59
2021/11/20 01:43:00;;;;;;;16.23;7.93;;;16.10;91.70;;;;;;4187897;28;20040;-59
2021/11/20 01:45:26;;;;;;;13.70;8.35;;;16.10;91.70;;;;;;4175099;28;20061;-59
2021/11/20 01:47:57;;;;;;;13.95;8.25;;;16.10;91.70;;;;;;4180066;28;20468;-60
2021/11/20 01:50:31;;;;;;;16.75;7.88;;;16.10;91.70;;;;;;4174153;28;20427;-60
2021/11/20 01:53:04;;;;;;;16.05;9.18;;;16.00;91.80;;;;;;4173837;28;20041;-59
2021/11/20 01:55:34;;;;;;;10.75;8.40;;;16.00;91.80;;;;;;4176702;28;20132;-59
2021/11/20 01:58:20;;;;;;;15.38;8.57;;;16.00;91.80;;;;;;4173510;28;20201;-60
2021/11/20 02:00:51;;;;;;;15.82;8.30;;;16.00;91.80;;;;;;4174068;28;20068;-60
2021/11/20 02:03:28;;;;;;;14.93;7.63;;;16.00;91.90;;;;;;4172549;28;20477;-60
2021/11/20 02:06:07;;;;;;;12.88;8.35;;;16.00;91.80;;;;;;4158804;28;20127;-59
2021/11/20 02:08:41;;;;;;;15.00;8.55;;;16.00;91.70;;;;;;4165253;28;20572;-60
2021/11/20 02:11:07;;;;;;;11.20;7.90;;;16.00;91.80;;;;;;4157187;28;20049;-59
2021/11/20 02:13:31;;;;;;;14.23;8.48;;;16.00;91.80;;;;;;4157299;28;20117;-60
2021/11/20 02:16:02;;;;;;;15.07;9.25;;;16.00;91.80;;;;;;4159057;28;20070;-60
2021/11/20 02:18:26;;;;;;;14.35;8.15;;;16.00;91.70;;;;;;4160079;28;20049;-58
2021/11/20 02:20:53;;;;;;;16.80;8.50;;;16.00;91.80;;;;;;4183533;28;20059;-60
2021/11/20 02:23:30;;;;;;;16.92;8.95;;;15.90;91.70;;;;;;4192830;28;20098;-60
2021/11/20 02:25:52;;;;;;;12.80;7.63;;;16.00;91.90;;;;;;4192798;28;20162;-60
2021/11/20 02:28:24;;;;;;;12.95;8.45;;;15.90;91.90;;;;;;4181114;28;20464;-60
2021/11/20 02:30:51;;;;;;;17.27;8.52;;;15.90;91.80;;;;;;4176929;28;20051;-60
2021/11/20 02:33:16;;;;;;;14.15;8.68;;;15.90;91.80;;;;;;4160857;28;20061;-60
2021/11/20 02:35:46;;;;;;;;;;;15.90;91.80;;;;;;4174135;28;20040;-60
2021/11/20 02:38:11;;;;;;;11.40;8.43;;;15.90;91.80;;;;;;4185961;28;19925;-60
2021/11/20 02:40:33;;;;;;;14.50;9.15;;;15.90;92.10;;;;;;4176810;28;20053;-61
2021/11/20 02:42:56;;;;;;;13.38;8.82;;;15.90;92.10;;;;;;4177964;28;20075;-60
2021/11/20 02:45:28;;;;;;;17.23;9.60;;;15.90;92.10;;;;;;4176036;28;20162;-60
2021/11/20 02:47:54;;;;;;;12.32;8.27;;;15.90;92.00;;;;;;4190386;28;20127;-60
2021/11/20 02:50:16;;;;;;;12.60;7.85;;;15.90;91.90;;;;;;4192468;28;20060;-60
2021/11/20 02:52:38;;;;;;;12.25;8.73;;;15.90;91.90;;;;;;4192465;28;20045;-59
2021/11/20 02:55:00;;;;;;;13.50;8.38;;;15.90;91.90;;;;;;4192240;28;20051;-59
2021/11/20 02:57:36;;;;;;;12.98;7.90;;;15.90;91.80;;;;;;4205413;28;20102;-60
2021/11/20 02:59:59;;;;;;;11.60;8.00;;;15.80;91.80;;;;;;4176064;28;20098;-60
2021/11/20 03:02:28;;;;;;;16.25;8.25;;;15.90;91.90;;;;;;4186318;28;20139;-60
2021/11/20 03:04:53;;;;;;;13.88;8.57;;;15.90;92.00;;;;;;4193594;28;20135;-60
2021/11/20 03:07:16;;;;;;;11.20;7.70;;;15.90;92.00;;;;;;4177508;28;20057;-60
2021/11/20 03:09:39;;;;;;;12.88;8.90;;;15.80;91.90;;;;;;4175819;28;20125;-59
2021/11/20 03:12:12;;;;;;;11.18;7.93;;;15.80;91.90;;;;;;4159037;28;20424;-59
2021/11/20 03:14:38;;;;;;;12.10;8.50;;;15.80;92.00;;;;;;4175706;28;20488;-59
2021/11/20 03:17:02;;;;;;;16.38;7.75;;;15.80;92.00;;;;;;4175775;28;20393;-59
2021/11/20 03:19:28;;;;;;;13.07;7.82;;;15.80;91.90;;;;;;4177129;28;20037;-59
2021/11/20 03:21:54;;;;;;;16.17;8.63;;;15.80;92.00;;;;;;4175345;28;20127;-59
2021/11/20 03:24:19;;;;;;;14.00;8.18;;;15.80;92.00;;;;;;4175524;28;20441;-60
2021/11/20 03:26:42;;;;;;;18.00;9.77;;;15.80;92.40;;;;;;4174469;28;20045;-60
2021/11/20 03:29:06;;;;;;;11.45;8.02;;;15.80;92.40;;;;;;4182980;28;21504;-60
2021/11/20 03:31:28;;;;;;;14.15;8.25;;;15.80;92.10;;;;;;4175565;28;20625;-60
2021/11/20 03:33:51;;;;;;;12.52;8.65;;;15.80;92.00;;;;;;4175971;28;20068;-65
2021/11/20 03:36:13;;;;;;;11.15;8.48;;;15.80;92.10;;;;;;4185330;28;20059;-65
2021/11/20 03:38:36;;;;;;;14.70;8.75;;;15.80;92.20;;;;;;4193515;28;20052;-61
2021/11/20 03:41:03;;;;;;;14.40;8.85;;;15.80;92.20;;;;;;4192213;28;20052;-60
2021/11/20 03:43:26;;;;;;;11.18;8.18;;;15.80;92.50;;;;;;4188449;28;20056;-61
2021/11/20 03:45:48;;;;;;;17.02;8.57;;;15.80;92.20;;;;;;4179860;28;20147;-63
2021/11/20 03:48:13;;;;;;;16.50;8.70;;;15.80;92.20;;;;;;4174857;28;20045;-60
2021/11/20 03:50:35;;;;;;;10.25;8.32;;;15.80;92.20;;;;;;4191738;28;20040;-60
2021/11/20 03:52:58;;;;;;;14.98;8.55;;;15.80;92.20;;;;;;4176622;28;20405;-60
2021/11/20 03:55:25;;;;;;;16.13;9.00;;;15.80;92.20;;;;;;4175261;28;20053;-61
2021/11/20 03:57:47;;;;;;;13.65;8.20;;;15.80;92.20;;;;;;4184858;28;20068;-61
2021/11/20 04:00:12;;;;;;;13.93;8.73;;;15.80;92.20;;;;;;4175549;28;20126;-61
2021/11/20 04:02:37;;;;;;;13.00;7.93;;;15.80;92.30;;;;;;4176569;28;20049;-60
2021/11/20 04:05:00;;;;;;;12.82;8.10;;;15.80;92.20;;;;;;4174487;28;20053;-60
2021/11/20 04:07:23;;;;;;;15.32;8.20;;;15.80;92.20;;;;;;4160129;28;20069;-60
2021/11/20 04:09:46;;;;;;;9.82;8.38;;;15.70;92.20;;;;;;4175788;28;20049;-62
2021/11/20 04:12:11;;;;;;;11.60;8.18;;;15.80;92.30;;;;;;4171007;28;20107;-61
2021/11/20 04:14:34;;;;;;;16.88;8.77;;;15.70;92.20;;;;;;4159586;28;20054;-60
2021/11/20 04:16:56;;;;;;;13.52;8.15;;;15.70;92.30;;;;;;4160610;28;20045;-60
2021/11/20 04:19:19;;;;;;;13.25;8.10;;;15.70;92.30;;;;;;4175037;28;20045;-60
2021/11/20 04:21:43;;;;;;;12.20;8.02;;;15.70;92.30;;;;;;4175496;28;20040;-60
2021/11/20 04:24:06;;;;;;;13.25;8.75;;;15.70;92.30;;;;;;4188838;28;20102;-61
2021/11/20 04:26:51;;;;;;;11.75;8.68;;;15.70;92.20;;;;;;4175787;28;20048;-59
2021/11/20 04:29:17;;;;;;;17.70;8.82;;;15.70;92.70;;;;;;4174980;28;20059;-59
2021/11/20 04:31:40;;;;;;;10.18;8.30;;;15.70;92.20;;;;;;4184905;28;20056;-60
2021/11/20 04:34:02;;;;;;;15.70;8.60;;;15.70;92.30;;;;;;4173434;28;20071;-59
2021/11/20 04:49:09;;;;;;;12.18;8.73;;;15.90;92.50;;;;;;4447664;23;19968;-60
2021/11/20 04:51:31;;;;;;;18.02;10.63;;;16.00;92.30;;;;;;4077142;29;20519;-61
2021/11/20 04:53:54;;;;;;;14.77;9.20;;;16.10;92.10;;;;;;4063988;29;20055;-60
2021/11/20 04:56:21;;;;;;;12.10;8.68;;;16.20;92.00;;;;;;4078672;29;20056;-60
2021/11/20 04:58:44;;;;;;;14.00;9.82;;;16.20;91.80;;;;;;4078408;29;20058;-61
2021/11/20 05:01:06;;;;;;;14.40;10.32;;;16.20;91.70;;;;;;4064445;29;20056;-61
2021/11/20 05:03:35;;;;;;;14.20;9.40;;;16.30;91.60;;;;;;4064209;29;20056;-60
2021/11/20 05:05:59;;;;;;;14.82;9.45;;;16.30;91.60;;;;;;4078172;29;20063;-60
2021/11/20 05:08:22;;;;;;;13.98;9.07;;;16.30;91.50;;;;;;4063106;29;20101;-60
2021/11/20 05:10:50;;;;;;;13.50;9.68;;;16.30;91.50;;;;;;4063496;29;20423;-60
2021/11/20 05:13:12;;;;;;;15.65;8.93;;;16.30;91.50;;;;;;4078429;29;20051;-61
2021/11/20 05:15:38;;;;;;;12.77;9.50;;;16.30;91.50;;;;;;4063479;29;20060;-60
2021/11/20 05:18:01;;;;;;;13.75;8.45;;;16.20;91.40;;;;;;4064183;29;20075;-61
2021/11/20 05:20:49;;;;;;;11.80;10.05;;;16.20;91.50;;;;;;4077864;29;20130;-61
2021/11/20 05:23:14;;;;;;;15.07;9.02;;;16.30;91.50;;;;;;4077514;29;20426;-61
2021/11/20 05:25:36;;;;;;;11.40;8.57;;;16.20;91.50;;;;;;4064178;29;20059;-60
2021/11/20 05:27:58;;;;;;;12.52;8.82;;;16.20;91.50;;;;;;4063947;29;20048;-62
2021/11/20 05:30:27;;;;;;;16.42;8.95;;;16.20;91.50;;;;;;4048336;29;20052;-60
2021/11/20 05:32:51;;;;;;;12.32;8.80;;;16.20;91.60;;;;;;4050835;29;20152;-60
2021/11/20 05:35:14;;;;;;;14.90;8.30;;;16.10;91.60;;;;;;4048227;29;20519;-59
2021/11/20 05:37:36;;;;;;;15.15;9.20;;;16.10;91.60;;;;;;4047593;29;20052;-60
2021/11/20 05:40:03;;;;;;;17.70;9.60;;;16.10;91.60;;;;;;4063064;29;20122;-59
2021/11/20 05:42:25;;;;;;;14.18;9.20;;;16.10;91.70;;;;;;4063935;29;20425;-59
2021/11/20 05:44:49;;;;;;;14.90;9.70;;;16.20;91.80;;;;;;4063796;29;20131;-59
2021/11/20 05:47:14;;;;;;;12.38;9.45;;;16.20;91.70;;;;;;4062826;29;20063;-59
2021/11/20 05:49:38;;;;;;;15.82;9.95;;;16.30;91.50;;;;;;4067613;29;20464;-59
2021/11/20 05:52:04;;;;;;;14.40;9.13;;;16.40;91.40;;;;;;4064034;29;20159;-60
2021/11/20 05:54:28;;;;;;;15.95;9.23;;;16.40;91.30;;;;;;4048916;29;20052;-60
2021/11/20 05:56:58;;;;;;;15.10;9.32;;;16.40;91.20;;;;;;4078819;29;20056;-60
2021/11/20 05:59:25;;;;;;;13.60;8.98;;;16.50;91.20;;;;;;4065851;29;20044;-60
2021/11/20 06:01:48;;;;;;;17.23;9.48;;;16.40;91.10;;;;;;4066193;29;20080;-60
2021/11/20 06:04:10;;;;;;;14.63;9.88;;;16.40;91.10;;;;;;4051693;29;20136;-59
2021/11/20 06:06:32;;;;;;;14.52;9.30;;;16.50;91.00;;;;;;4064195;29;20056;-60
2021/11/20 06:08:54;;;;;;;14.30;8.77;;;16.40;91.00;;;;;;4065609;29;20148;-59
2021/11/20 06:11:17;;;;;;;12.18;9.50;;;16.40;91.10;;;;;;4066816;29;20052;-60
2021/11/20 06:13:41;;;;;;;14.13;9.60;;;16.40;91.10;;;;;;4080523;29;20055;-60
2021/11/20 06:16:10;;;;;;;18.05;10.20;;;16.30;91.10;;;;;;4055545;29;20052;-59
2021/11/20 06:18:33;;;;;;;13.02;9.10;;;16.30;91.20;;;;;;4075404;29;20052;-60
2021/11/20 06:20:56;;;;;;;11.55;8.77;;;16.30;91.20;;;;;;4066874;29;20511;-59
2021/11/20 06:23:21;;;;;;;16.10;9.95;;;16.30;91.30;;;;;;4066928;29;20092;-60
2021/11/20 06:25:45;;;;;;;12.73;9.00;;;16.20;91.30;;;;;;4079614;29;20055;-59
2021/11/20 06:28:11;;;;;;;15.45;9.70;;;16.20;91.70;;;;;;4058292;29;20111;-59
2021/11/20 06:30:36;;;;;;;16.83;10.35;;;16.20;91.30;;;;;;4051051;29;20894;-59
2021/11/20 06:32:58;;;;;;;12.27;9.00;;;16.20;91.40;;;;;;4050551;29;20044;-60
2021/11/20 06:35:39;;;;;;;16.33;9.73;;;16.20;91.40;;;;;;4072823;29;20051;-60
2021/11/20 06:38:07;;;;;;;12.95;9.57;;;16.20;91.40;;;;;;4071527;29;20472;-59
2021/11/20 06:40:33;;;;;;;15.02;8.98;;;16.10;91.40;;;;;;4050456;29;20048;-60
2021/11/20 06:42:56;;;;;;;14.23;9.63;;;16.10;91.60;;;;;;4050204;29;20168;-59
2021/11/20 06:45:21;;;;;;;13.85;9.93;;;16.10;91.50;;;;;;4055754;29;20103;-62
2021/11/20 06:47:45;;;;;;;16.83;10.23;;;16.10;91.50;;;;;;4075185;29;20050;-62
2021/11/20 06:50:07;;;;;;;15.13;9.63;;;16.10;91.70;;;;;;4075010;29;20048;-62
2021/11/20 06:52:50;;;;;;;15.55;9.43;;;16.10;91.70;;;;;;4065026;29;20467;-62
2021/11/20 06:55:41;;;;;;;12.18;9.10;;;16.10;91.50;;;;;;4069005;29;20785;-62
2021/11/20 06:58:32;;;;;;;11.57;9.75;;;16.10;91.60;;;;;;4063171;29;20127;-63
2021/11/20 07:01:09;;;;;;;15.48;9.30;;;16.00;91.50;;;;;;4062005;29;20090;-62
2021/11/20 07:03:51;;;;;;;15.80;9.80;;;16.00;91.70;;;;;;4076739;29;20055;-61
2021/11/20 07:06:18;;;;;;;12.02;9.43;;;15.90;91.60;;;;;;4078517;29;20055;-62
2021/11/20 07:08:41;;;;;;;12.25;9.50;;;15.90;91.60;;;;;;4068919;29;20084;-61
2021/11/20 07:11:03;;;;;;;15.52;10.57;;;15.90;91.70;;;;;;4076262;29;20047;-59
2021/11/20 07:13:26;;;;;;;14.15;9.75;;;15.90;91.70;;;;;;4062545;29;20056;-59
2021/11/20 07:15:48;;;;;;;15.88;10.48;;;15.90;91.70;;;;;;4065055;29;20107;-60
2021/11/20 07:18:11;;;;;;;12.77;10.43;;;15.90;91.70;;;;;;4077122;29;20047;-59
2021/11/20 07:20:53;;;;;;;13.85;9.60;;;15.90;91.80;;;;;;4079602;29;20058;-59
2021/11/20 07:23:36;;;;;;;12.32;9.82;;;15.80;91.80;;;;;;4049273;29;20040;-62
2021/11/20 07:26:00;;;;;;;12.43;9.80;;;15.80;91.80;;;;;;4076469;29;20046;-62
2021/11/20 07:28:23;;;;;;;13.20;9.27;;;15.80;92.30;;;;;;4065097;29;20043;-59
2021/11/20 07:30:45;;;;;;;14.18;9.95;;;15.80;91.90;;;;;;4080122;29;20072;-59
2021/11/20 07:33:09;;;;;;;16.23;10.15;;;15.80;91.90;;;;;;4062252;29;20083;-59
2021/11/20 07:35:34;;;;;;;15.30;10.73;;;15.80;91.90;;;;;;4062805;29;20068;-59
2021/11/20 07:37:58;;;;;;;16.92;9.32;;;15.80;92.20;;;;;;4064304;29;20468;-59
2021/11/20 07:40:21;;;;;;;13.38;9.68;;;15.90;92.30;;;;;;4077394;29;20046;-59
2021/11/20 07:42:43;;;;;;;15.60;10.77;;;15.90;92.10;;;;;;4062576;29;20052;-58
2021/11/20 07:45:34;;;;;;;16.10;10.95;;;16.00;91.90;;;;;;4064434;29;20067;-62
2021/11/20 07:48:04;;;;;;;17.45;10.27;;;16.10;91.70;;;;;;4064729;29;20052;-58
2021/11/20 07:50:31;;;;;;;11.43;10.20;;;16.20;91.70;;;;;;4065421;29;20056;-58
2021/11/20 07:52:53;;;;;;;16.13;10.25;;;16.20;91.70;;;;;;4064386;29;20086;-59
2021/11/20 07:55:17;;;;;;;14.05;10.23;;;16.20;91.70;;;;;;4065188;29;20040;-60
2021/11/20 07:57:50;;;;;;;15.50;10.48;;;16.30;91.70;;;;;;4075819;29;20141;-60
2021/11/20 08:00:16;;;;;;;15.88;10.95;;;16.30;91.80;;;;;;4062955;29;20076;-60
2021/11/20 08:02:38;;;;;;;13.95;10.35;;;16.30;91.70;;;;;;4072966;29;20044;-60
2021/11/20 08:05:02;;;;;;;13.63;11.13;;;16.40;91.50;;;;;;4059952;29;20508;-60
2021/11/20 08:07:54;;;;;;;13.13;11.38;;;16.40;91.30;;;;;;4020538;29;20049;-60
2021/11/20 08:10:41;;;;;;;15.88;11.23;;;16.50;91.00;;;;;;4047706;29;20064;-60
2021/11/20 08:13:06;;;;;;;18.42;10.85;;;16.50;90.80;;;;;;4033317;29;20795;-60
2021/11/20 08:15:49;;;;;;;15.88;12.07;;;16.50;90.70;;;;;;4071931;29;20062;-60
2021/11/20 08:18:38;;;;;;;13.77;10.90;;;16.50;90.60;;;;;;4077915;29;20100;-60
2021/11/20 08:21:19;;;;;;;;;;;16.50;90.50;;;;;;4059438;29;20056;-60
2021/11/20 08:23:51;;;;;;;17.38;11.18;;;16.40;90.40;;;;;;4062601;29;19934;-60
2021/11/20 08:26:15;;;;;;;18.33;11.80;;;16.40;90.40;;;;;;4074695;29;20055;-60
2021/11/20 08:28:38;;;;;;;19.52;12.70;;;16.40;90.40;;;;;;4061319;29;20480;-60
2021/11/20 08:31:04;;;;;;;15.85;11.63;;;16.30;90.30;;;;;;4061038;29;20048;-60
2021/11/20 08:33:27;;;;;;;16.88;12.32;;;16.30;90.20;;;;;;4062097;29;20064;-60
2021/11/20 08:36:11;;;;;;;14.80;10.68;;;16.30;90.20;;;;;;4077060;29;20051;-60
2021/11/20 08:38:51;;;;;;;15.68;11.82;;;16.30;90.20;;;;;;4078634;29;20146;-60
2021/11/20 08:41:18;;;;;;;16.75;10.98;;;16.20;90.20;;;;;;4062103;29;20044;-60
2021/11/20 08:43:41;;;;;;;16.77;12.27;;;16.20;90.20;;;;;;4062059;29;20432;-60
2021/11/20 08:46:16;;;;;;;17.17;12.88;;;16.10;90.20;;;;;;4063941;29;20044;-60
2021/11/20 08:48:39;;;;;;;18.08;11.55;;;16.10;90.10;;;;;;4077409;29;20048;-60
2021/11/20 08:51:07;;;;;;;9.20;7.30;;;16.10;90.10;;;;;;4074891;29;20123;-61
2021/11/20 08:53:32;;;;;;;13.90;10.20;;;16.10;90.10;;;;;;4048473;29;20060;-60
2021/11/20 08:55:55;;;;;;;15.23;12.43;;;16.10;90.10;;;;;;4076261;29;20086;-60
2021/11/20 08:58:36;;;;;;;18.38;11.48;;;16.10;90.10;;;;;;4063756;29;20052;-60
2021/11/20 09:01:04;;;;;;;15.60;12.30;;;16.00;90.10;;;;;;4072466;29;20068;-59
2021/11/20 09:03:45;;;;;;;13.85;8.65;;;16.00;90.10;;;;;;4062475;29;20052;-59
2021/11/20 09:06:14;;;;;;;13.50;10.60;;;16.00;90.10;;;;;;4061769;29;20047;-60
2021/11/20 09:08:41;;;;;;;17.50;13.73;;;15.90;90.10;;;;;;4051968;29;20192;-59
2021/11/20 09:11:08;;;;;;;18.83;12.00;;;15.90;90.10;;;;;;4058092;29;20053;-60
2021/11/20 09:13:34;;;;;;;13.68;8.63;;;15.90;90.00;;;;;;4048468;29;20052;-60
2021/11/20 09:16:01;;;;;;;14.57;11.77;;;15.90;90.00;;;;;;4047972;29;20492;-60
2021/11/20 09:18:26;;;;;;;16.23;11.48;;;15.90;90.00;;;;;;4048308;29;20048;-63
2021/11/20 09:20:52;;;;;;;18.95;12.27;;;15.90;90.00;;;;;;4048945;29;20127;-64
2021/11/20 09:23:41;;;;;;;16.08;12.23;;;15.90;90.00;;;;;;4056487;29;20059;-63
2021/11/20 09:26:23;;;;;;;18.48;13.00;;;15.80;89.80;;;;;;4032505;29;20068;-63
2021/11/20 09:28:47;;;;;;;19.10;13.13;;;15.80;89.80;;;;;;4047661;29;20045;-58
2021/11/20 09:31:12;;;;;;;18.92;13.82;;;15.80;89.70;;;;;;4070175;29;20827;-63
2021/11/20 09:33:35;;;;;;;16.70;12.52;;;15.80;89.70;;;;;;4061150;29;20055;-67
2021/11/20 09:35:57;;;;;;;18.17;12.63;;;15.80;89.70;;;;;;4047626;29;20423;-66
2021/11/20 09:38:39;;;;;;;19.15;12.88;;;15.80;90.20;;;;;;4062112;29;20080;-67
2021/11/20 09:41:04;;;;;;;18.33;12.63;;;15.80;89.80;;;;;;4055321;29;20201;-60
2021/11/20 09:43:28;;;;;;;16.80;11.10;;;15.80;89.80;;;;;;4063747;29;20498;-65
2021/11/20 09:45:57;;;;;;;14.82;12.15;;;15.80;90.00;;;;;;4063887;29;20476;-62
2021/11/20 09:48:29;;;;;;;17.15;13.88;;;15.70;89.90;;;;;;4063064;29;20512;-63
2021/11/20 09:51:05;;;;;;;17.05;12.90;;;15.80;89.90;;;;;;4069643;29;20134;-63
2021/11/20 09:53:27;;;;;;;19.05;12.90;;;15.70;90.10;;;;;;4075924;29;20058;-63
2021/11/20 09:55:51;;;;;;;17.08;13.45;;;15.70;90.30;;;;;;4077974;29;20051;-62
2021/11/20 09:58:19;;;;;;;18.65;13.98;;;15.70;90.20;;;;;;4076499;29;20365;-62
2021/11/20 10:01:09;;;;;;;17.42;11.43;;;15.70;90.30;;;;;;4052384;29;20048;-63
2021/11/20 10:03:41;;;;;;;17.77;13.03;;;15.80;90.30;;;;;;4034464;29;20127;-63
2021/11/20 10:06:05;;;;;;;20.05;14.50;;;16.00;90.00;;;;;;4049301;29;20068;-61
2021/11/20 10:08:29;;;;;;;17.98;14.15;;;16.30;88.80;;;;;;4061238;29;20072;-61
2021/11/20 10:10:59;;;;;;;18.42;13.27;;;16.60;87.50;;;;;;4062049;29;20056;-61
2021/11/20 10:13:26;;;;;;;18.63;13.85;;;16.90;86.00;;;;;;4076007;29;20051;-66
2021/11/20 10:15:59;;;;;;;19.50;11.55;;;17.20;84.30;;;;;;4077060;29;20138;-53
2021/11/20 10:18:25;;;;;;;17.48;11.85;;;17.50;82.90;;;;;;4073580;29;20088;-64
2021/11/20 10:20:51;;;;;;;17.35;12.98;;;17.70;81.90;;;;;;4062085;29;20044;-60
2021/11/20 10:23:30;;;;;;;19.27;13.90;;;17.90;80.70;;;;;;4061575;29;20056;-59
2021/11/20 10:26:15;;;;;;;18.10;14.32;;;18.00;80.30;;;;;;4050517;29;20040;-61
2021/11/20 10:28:49;;;;;;;15.82;10.85;;;18.10;79.50;;;;;;4062965;29;20044;-63
2021/11/20 10:31:17;;;;;;;17.42;13.63;;;18.30;78.40;;;;;;4062029;29;20059;-54
2021/11/20 10:33:44;;;;;;;15.27;12.45;;;18.30;77.50;;;;;;4062144;29;20139;-66
2021/11/20 10:36:10;;;;;;;16.17;13.68;;;18.40;77.00;;;;;;4064910;29;20367;-53
2021/11/20 10:38:37;;;;;;;18.10;13.13;;;18.40;76.80;;;;;;4064486;29;20052;-55
2021/11/20 10:41:07;;;;;;;17.00;14.73;;;18.30;76.70;;;;;;4073972;29;20054;-58
2021/11/20 10:43:33;;;;;;;14.88;12.82;;;18.20;76.60;;;;;;4080663;29;20460;-58
2021/11/20 10:46:03;;;;;;;16.83;13.25;;;18.20;76.90;;;;;;4073531;29;20452;-58
2021/11/20 10:48:35;;;;;;;15.60;12.15;;;18.10;77.20;;;;;;4064793;29;20062;-58
2021/11/20 10:51:33;;;;;;;15.13;11.90;;;18.10;77.30;;;;;;4047369;29;20045;-58
2021/11/20 10:54:29;;;;;;;17.38;12.93;;;18.10;77.40;;;;;;4064192;29;20073;-63
2021/11/20 10:56:57;;;;;;;16.58;12.50;;;18.00;77.30;;;;;;4064496;29;20052;-51
2021/11/20 10:59:51;;;;;;;18.33;14.10;;;17.90;77.40;;;;;;4070646;29;20039;-68
2021/11/20 11:02:56;;;;;;;16.50;12.38;;;17.80;77.60;;;;;;4072615;29;20107;-58
2021/11/20 11:06:09;;;;;;;18.25;12.45;;;17.70;78.90;;;;;;4071536;29;20047;-56
2021/11/20 11:08:35;;;;;;;15.38;13.75;;;17.70;78.90;;;;;;4079245;29;20475;-56
2021/11/20 11:11:05;;;;;;;21.55;15.18;;;17.70;78.50;;;;;;4048984;29;20128;-56
2021/11/20 11:14:02;;;;;;;19.75;13.50;;;17.70;78.30;;;;;;4048730;29;20143;-56
2021/11/20 11:16:29;;;;;;;18.00;14.10;;;17.70;78.40;;;;;;4054668;29;20048;-56
2021/11/20 11:18:54;;;;;;;17.05;12.60;;;17.80;77.90;;;;;;4077733;29;20056;-56
2021/11/20 11:21:41;;;;;;;17.10;14.27;;;17.90;77.50;;;;;;4064321;29;20389;-56
2021/11/20 11:24:47;;;;;;;18.48;11.60;;;18.00;76.80;;;;;;4064068;29;20143;-57
2021/11/20 11:27:13;;;;;;;19.33;16.40;;;18.10;76.50;;;;;;4066652;29;20653;-56
2021/11/20 11:29:58;;;;;;;20.52;13.80;;;18.10;75.90;;;;;;4070567;29;20056;-56
2021/11/20 11:32:20;;;;;;;19.30;15.80;;;18.00;75.70;;;;;;4063423;29;20047;-49
2021/11/20 11:34:48;;;;;;;20.52;8.35;;;18.00;76.20;;;;;;4061549;29;20104;-49
2021/11/20 11:37:24;;;;;;;20.92;14.73;;;17.90;76.50;;;;;;4061482;29;20364;-55
2021/11/20 11:39:52;;;;;;;17.50;10.45;;;17.80;76.60;;;;;;4061387;29;20058;-56
2021/11/20 11:42:46;;;;;;;21.13;15.85;;;17.70;77.20;;;;;;4061477;29;20075;-61
2021/11/20 11:45:27;;;;;;;21.50;17.80;;;17.60;77.50;;;;;;4061652;29;20055;-60
2021/11/20 11:48:16;;;;;;;20.67;16.77;;;17.50;78.00;;;;;;4059298;29;20100;-60
2021/11/20 11:51:02;;;;;;;24.27;17.88;;;17.40;78.40;;;;;;4059885;29;20051;-59
2021/11/20 11:53:32;;;;;;;22.63;17.88;;;17.40;79.00;;;;;;4060021;29;20052;-63
2021/11/20 11:55:56;;;;;;;20.67;17.63;;;17.30;79.00;;;;;;4060374;29;20050;-61
2021/11/20 11:58:46;;;;;;;18.85;13.20;;;17.40;78.80;;;;;;4073074;29;20587;-70
2021/11/20 12:01:11;;;;;;;21.50;15.43;;;17.40;78.60;;;;;;4078444;29;20470;-63
2021/11/20 12:03:36;;;;;;;22.55;12.77;;;17.50;78.50;;;;;;4078563;29;20051;-68
2021/11/20 12:06:14;;;;;;;27.33;19.20;;;17.50;78.30;;;;;;4073734;29;20137;-60
2021/11/20 12:08:39;;;;;;;21.60;17.10;;;17.40;78.10;;;;;;4062370;29;20567;-65
2021/11/20 12:11:05;;;;;;;20.52;12.13;;;17.50;78.40;;;;;;4062237;29;20488;-66
2021/11/20 12:13:39;;;;;;;24.08;18.35;;;17.50;78.10;;;;;;4059876;29;20373;-62
2021/11/20 12:16:10;;;;;;;25.67;19.75;;;17.60;77.50;;;;;;4060739;29;20492;-65
2021/11/20 12:18:39;;;;;;;22.98;18.15;;;17.70;77.10;;;;;;4060738;29;20060;-61
2021/11/20 12:21:15;;;;;;;26.60;19.45;;;17.70;76.90;;;;;;4059738;29;20044;-63
2021/11/20 12:23:49;;;;;;;25.95;19.02;;;17.70;77.50;;;;;;4059745;29;20128;-67
2021/11/20 12:26:19;;;;;;;24.35;17.90;;;17.60;77.80;;;;;;4060254;29;20052;-65
2021/11/20 12:29:11;;;;;;;25.55;16.50;;;17.60;78.10;;;;;;4059904;29;20052;-67
2021/11/20 12:31:55;;;;;;;26.55;20.17;;;17.70;78.10;;;;;;4059990;29;20048;-63
2021/11/20 12:34:31;;;;;;;25.60;19.45;;;17.60;78.20;;;;;;4062190;29;20048;-63
2021/11/20 12:37:23;;;;;;;29.88;15.55;;;17.60;78.10;;;;;;4072662;29;20058;-68
2021/11/20 12:39:55;;;;;;;26.67;18.88;;;17.60;78.40;;;;;;4078025;29;20135;-65
2021/11/20 12:42:35;;;;;;;26.02;18.92;;;17.50;79.40;;;;;;4064216;29;20052;-66
2021/11/20 12:45:29;;;;;;;26.25;18.88;;;17.50;78.40;;;;;;4059619;29;20146;-65
2021/11/20 12:48:16;;;;;;;26.42;19.15;;;17.50;78.70;;;;;;4059253;29;20519;-64
2021/11/20 12:50:53;;;;;;;27.75;17.80;;;17.40;79.10;;;;;;4059818;29;20555;-63
2021/11/20 12:53:27;;;;;;;21.92;15.20;;;17.40;79.70;;;;;;4059299;29;20048;-67
2021/11/20 12:56:06;;;;;;;29.98;20.60;;;17.30;80.20;;;;;;4059081;29;20111;-66